createdAt,value
2023-02-14T00:02:06.999Z,103546.25
2023-02-14T00:04:33.996Z,103554.97
2023-02-14T00:07:01.252Z,103554.84
2023-02-14T00:09:29.083Z,103561.72
2023-02-14T00:11:55.681Z,103558.25
2023-02-14T00:14:41.057Z,103556.44
2023-02-14T00:17:07.557Z,103558.16
2023-02-14T00:19:35.932Z,103554.72
2023-02-14T00:22:03.547Z,103566.03
2023-02-14T00:24:30.189Z,103559.84
2023-02-14T00:26:57.095Z,103550.38
2023-02-14T00:29:27.855Z,103553.78
2023-02-14T00:31:54.843Z,103554.59
2023-02-14T00:34:23.948Z,103544.88
2023-02-14T00:36:50.704Z,103556.00
2023-02-14T00:39:18.607Z,103549.94
2023-02-14T00:41:45.343Z,103545.53
2023-02-14T00:44:15.177Z,103544.66
2023-02-14T00:46:41.931Z,103548.16
2023-02-14T00:49:08.613Z,103540.34
2023-02-14T00:51:38.061Z,103540.34
2023-02-14T00:54:04.946Z,103542.06
2023-02-14T00:56:32.239Z,103536.00
2023-02-14T00:58:59.126Z,103534.22
2023-02-14T01:01:27.946Z,103531.53
2023-02-14T01:03:54.755Z,103539.34
2023-02-14T01:06:23.762Z,103537.53
2023-02-14T01:08:51.484Z,103539.25
2023-02-14T01:11:20.575Z,103542.66
2023-02-14T01:13:48.491Z,103539.25
2023-02-14T01:16:18.566Z,103540.16
2023-02-14T01:18:46.241Z,103527.09
2023-02-14T01:21:24.843Z,103525.38
2023-02-14T01:23:54.629Z,103528.78
2023-02-14T01:26:22.547Z,103528.69
2023-02-14T01:28:49.781Z,103520.03
2023-02-14T01:31:18.252Z,103521.69
2023-02-14T01:33:47.080Z,103529.47
2023-02-14T01:36:22.437Z,103518.19
2023-02-14T01:38:52.631Z,103527.63
2023-02-14T01:41:19.716Z,103519.75
2023-02-14T01:43:58.892Z,103508.47
2023-02-14T01:46:28.566Z,103512.78
2023-02-14T01:49:01.870Z,103523.16
2023-02-14T01:51:29.339Z,103519.75
2023-02-14T01:53:56.924Z,103517.91
2023-02-14T01:56:35.922Z,103514.41
2023-02-14T01:59:06.350Z,103521.31
2023-02-14T02:01:33.025Z,103516.13
2023-02-14T02:04:07.384Z,103503.13
2023-02-14T02:07:05.784Z,103504.00
2023-02-14T02:09:42.268Z,103497.13
2023-02-14T02:12:09.004Z,103496.16
2023-02-14T02:14:36.820Z,103503.19
2023-02-14T02:17:21.394Z,103492.75
2023-02-14T02:20:17.648Z,103496.16
2023-02-14T02:23:25.808Z,103499.59
2023-02-14T02:25:55.081Z,103489.94
2023-02-14T02:29:07.095Z,103493.34
2023-02-14T02:31:45.193Z,103495.94
2023-02-14T02:34:36.612Z,103496.75
2023-02-14T02:37:12.188Z,103486.28
2023-02-14T02:40:20.263Z,103487.16
2023-02-14T02:42:53.623Z,103477.63
2023-02-14T02:46:17.670Z,103481.09
2023-02-14T02:49:01.192Z,103482.81
2023-02-14T02:51:55.612Z,103474.13
2023-02-14T02:54:34.979Z,103474.88
2023-02-14T02:57:05.524Z,103475.69
2023-02-14T02:59:41.536Z,103475.63
2023-02-14T03:02:13.765Z,103474.78
2023-02-14T03:04:54.361Z,103480.09
2023-02-14T03:07:34.793Z,103471.38
2023-02-14T03:10:06.272Z,103482.56
2023-02-14T03:12:37.442Z,103485.03
2023-02-14T03:15:30.182Z,103482.38
2023-02-14T03:18:22.264Z,103484.97
2023-02-14T03:21:04.885Z,103477.09
2023-02-14T03:23:38.400Z,103484.91
2023-02-14T03:26:22.046Z,103479.63
2023-02-14T03:29:08.716Z,103471.03
2023-02-14T03:32:02.698Z,103481.41
2023-02-14T03:34:48.906Z,103473.63
2023-02-14T03:37:22.218Z,103471.91
2023-02-14T03:40:11.431Z,103464.13
2023-02-14T03:42:41.608Z,103463.38
2023-02-14T03:45:13.176Z,103465.91
2023-02-14T03:47:43.159Z,103465.00
2023-02-14T03:50:16.779Z,103456.28
2023-02-14T03:52:44.818Z,103455.38
2023-02-14T03:55:15.379Z,103457.16
2023-02-14T03:58:06.486Z,103449.34
2023-02-14T04:00:37.568Z,103444.91
2023-02-14T04:03:11.817Z,103452.78
2023-02-14T04:05:43.558Z,103443.22
2023-02-14T04:08:11.940Z,103453.53
2023-02-14T04:10:40.100Z,103449.22
2023-02-14T04:13:06.703Z,103445.69
2023-02-14T04:15:33.355Z,103446.50
2023-02-14T04:18:18.972Z,103448.16
2023-02-14T04:20:45.498Z,103438.63
2023-02-14T04:23:12.056Z,103449.00
2023-02-14T04:25:40.339Z,103437.72
2023-02-14T04:28:06.848Z,103437.72
2023-02-14T04:30:33.400Z,103445.50
2023-02-14T04:33:00.087Z,103439.44
2023-02-14T04:35:26.695Z,103438.56
2023-02-14T04:37:53.241Z,103433.38
2023-02-14T04:40:19.996Z,103441.16
2023-02-14T04:42:46.889Z,103433.28
2023-02-14T04:45:13.878Z,103435.13
2023-02-14T04:47:40.528Z,103438.56
2023-02-14T04:50:07.666Z,103441.97
2023-02-14T04:52:34.112Z,103435.88
2023-02-14T04:55:00.742Z,103431.50
2023-02-14T04:57:27.321Z,103434.91
2023-02-14T04:59:53.853Z,103431.38
2023-02-14T05:02:20.432Z,103434.84
2023-02-14T05:04:49.629Z,103428.78
2023-02-14T05:07:16.390Z,103428.78
2023-02-14T05:09:42.938Z,103427.88
2023-02-14T05:12:09.713Z,103423.59
2023-02-14T05:14:36.240Z,103427.00
2023-02-14T05:17:03.107Z,103427.81
2023-02-14T05:19:29.734Z,103433.81
2023-02-14T05:21:56.264Z,103432.03
2023-02-14T05:24:22.896Z,103424.16
2023-02-14T05:26:49.707Z,103423.28
2023-02-14T05:29:16.269Z,103425.81
2023-02-14T05:31:42.897Z,103422.41
2023-02-14T05:34:09.779Z,103418.81
2023-02-14T05:36:36.308Z,103415.28
2023-02-14T05:39:03.000Z,103426.53
2023-02-14T05:41:29.886Z,103423.00
2023-02-14T05:43:56.431Z,103414.38
2023-02-14T05:46:23.279Z,103418.69
2023-02-14T05:48:49.990Z,103419.56
2023-02-14T05:51:16.595Z,103411.78
2023-02-14T05:53:43.299Z,103414.38
2023-02-14T05:56:09.869Z,103415.28
2023-02-14T05:58:36.502Z,103415.28
2023-02-14T06:01:03.270Z,103416.16
2023-02-14T06:03:30.051Z,103416.09
2023-02-14T06:05:56.593Z,103416.91
2023-02-14T06:08:23.418Z,103417.75
2023-02-14T06:10:50.114Z,103415.94
2023-02-14T06:13:16.794Z,103419.34
2023-02-14T06:15:43.325Z,103414.03
2023-02-14T06:18:10.098Z,103417.56
2023-02-14T06:20:36.825Z,103417.56
2023-02-14T06:23:03.754Z,103421.06
2023-02-14T06:25:30.340Z,103414.97
2023-02-14T06:27:58.549Z,103418.47
2023-02-14T06:30:25.679Z,103429.72
2023-02-14T06:32:52.296Z,103426.19
2023-02-14T06:35:19.012Z,103432.25
2023-02-14T06:37:45.718Z,103432.25
2023-02-14T06:40:13.010Z,103427.94
2023-02-14T06:42:40.044Z,103425.28
2023-02-14T06:45:07.403Z,103433.06
2023-02-14T06:47:35.202Z,103430.53
2023-02-14T06:50:04.261Z,103431.38
2023-02-14T06:52:32.240Z,103434.06
2023-02-14T06:54:58.766Z,103444.50
2023-02-14T06:57:25.345Z,103432.31
2023-02-14T06:59:51.954Z,103430.59
2023-02-14T07:02:18.773Z,103428.94
2023-02-14T07:04:45.660Z,103432.41
2023-02-14T07:07:12.241Z,103434.19
2023-02-14T07:09:38.924Z,103422.03
2023-02-14T07:12:05.705Z,103423.88
2023-02-14T07:14:32.214Z,103416.97
2023-02-14T07:16:58.781Z,103424.94
2023-02-14T07:19:25.407Z,103423.22
2023-02-14T07:21:52.001Z,103425.00
2023-02-14T07:24:18.521Z,103425.88
2023-02-14T07:26:45.092Z,103426.91
2023-02-14T07:29:11.768Z,103420.88
2023-02-14T07:31:38.500Z,103423.59
2023-02-14T07:34:05.098Z,103430.53
2023-02-14T07:36:32.915Z,103415.88
2023-02-14T07:38:59.662Z,103416.00
2023-02-14T07:41:26.269Z,103415.25
2023-02-14T07:43:52.844Z,103417.03
2023-02-14T07:46:22.546Z,103424.91
2023-02-14T07:48:52.516Z,103426.66
2023-02-14T07:51:19.276Z,103424.25
2023-02-14T07:53:47.962Z,103420.88
2023-02-14T07:56:14.737Z,103415.91
2023-02-14T07:58:43.823Z,103425.63
2023-02-14T08:01:12.395Z,103427.44
2023-02-14T08:03:38.933Z,103426.78
2023-02-14T08:06:07.787Z,103424.28
2023-02-14T08:08:34.480Z,103419.16
2023-02-14T08:11:01.661Z,103417.50
2023-02-14T08:13:28.531Z,103414.00
2023-02-14T08:16:09.849Z,103418.38
2023-02-14T08:18:41.290Z,103412.34
2023-02-14T08:21:11.313Z,103413.34
2023-02-14T08:23:38.239Z,103419.53
2023-02-14T08:26:04.936Z,103414.56
2023-02-14T08:28:33.007Z,103414.78
2023-02-14T08:31:00.909Z,103412.31
2023-02-14T08:33:28.258Z,103415.94
2023-02-14T08:35:55.224Z,103410.94
2023-02-14T08:38:22.465Z,103413.59
2023-02-14T08:40:49.158Z,103414.72
2023-02-14T08:43:15.900Z,103414.03
2023-02-14T08:45:42.937Z,103414.28
2023-02-14T08:48:10.848Z,103420.44
2023-02-14T08:50:38.227Z,103417.16
2023-02-14T08:53:09.681Z,103415.69
2023-02-14T08:55:36.656Z,103421.13
2023-02-14T08:58:04.736Z,103434.31
2023-02-14T09:00:32.511Z,103427.53
2023-02-14T09:02:59.398Z,103427.72
2023-02-14T09:05:26.507Z,103421.88
2023-02-14T09:07:55.979Z,103421.19
2023-02-14T09:10:23.398Z,103424.03
2023-02-14T09:12:50.436Z,103423.44
2023-02-14T09:15:16.993Z,103426.22
2023-02-14T09:17:43.726Z,103423.91
2023-02-14T09:20:12.161Z,103416.28
2023-02-14T09:22:38.798Z,103422.53
2023-02-14T09:25:06.259Z,103416.69
2023-02-14T09:27:32.963Z,103422.97
2023-02-14T09:29:59.788Z,103417.06
2023-02-14T09:32:27.160Z,103408.63
2023-02-14T09:34:53.831Z,103406.19
2023-02-14T09:37:20.524Z,103407.25
2023-02-14T09:39:47.072Z,103399.63
2023-02-14T09:43:02.147Z,103397.34
2023-02-14T09:45:32.299Z,103399.13
2023-02-14T09:48:17.204Z,103398.25
2023-02-14T09:50:47.365Z,103397.44
2023-02-14T09:53:26.008Z,103400.16
2023-02-14T09:56:31.036Z,103393.38
2023-02-14T09:59:04.916Z,103395.09
2023-02-14T10:01:38.369Z,103395.84
2023-02-14T10:04:23.201Z,103401.94
2023-02-14T10:07:15.405Z,103396.72
2023-02-14T10:10:30.831Z,103398.56
2023-02-14T10:13:40.306Z,103394.38
2023-02-14T10:16:14.163Z,103395.38
2023-02-14T10:18:49.916Z,103391.03
2023-02-14T10:21:25.450Z,103391.03
2023-02-14T10:24:01.994Z,103392.09
2023-02-14T10:26:40.122Z,103384.28
2023-02-14T10:29:12.871Z,103379.13
2023-02-14T10:31:55.562Z,103384.44
2023-02-14T10:34:38.991Z,103383.81
2023-02-14T10:37:24.608Z,103379.59
2023-02-14T10:40:05.876Z,103383.28
2023-02-14T10:42:47.437Z,103377.25
2023-02-14T10:45:45.027Z,103375.56
2023-02-14T10:48:17.762Z,103372.06
2023-02-14T10:51:03.211Z,103366.97
2023-02-14T10:54:19.316Z,103360.22
2023-02-14T10:56:50.005Z,103363.75
2023-02-14T10:59:25.870Z,103362.09
2023-02-14T11:01:54.695Z,103357.91
2023-02-14T11:04:23.912Z,103351.88
2023-02-14T11:06:50.925Z,103350.19
2023-02-14T11:09:18.259Z,103348.56
2023-02-14T11:11:54.378Z,103348.66
2023-02-14T11:14:24.010Z,103347.09
2023-02-14T11:16:51.994Z,103348.84
2023-02-14T11:19:23.880Z,103348.06
2023-02-14T11:21:52.184Z,103341.34
2023-02-14T11:24:39.769Z,103345.00
2023-02-14T11:27:12.380Z,103345.16
2023-02-14T11:29:38.862Z,103341.78
2023-02-14T11:32:21.596Z,103342.78
2023-02-14T11:34:57.892Z,103344.56
2023-02-14T11:37:28.613Z,103326.34
2023-02-14T11:39:57.981Z,103320.41
2023-02-14T11:42:54.605Z,103314.47
2023-02-14T11:45:36.336Z,103309.41
2023-02-14T11:48:37.635Z,103308.72
2023-02-14T11:51:14.987Z,103301.88
2023-02-14T11:53:51.942Z,103300.25
2023-02-14T11:56:20.407Z,103294.28
2023-02-14T11:58:52.779Z,103290.00
2023-02-14T12:01:26.849Z,103284.91
2023-02-14T12:03:55.488Z,103287.59
2023-02-14T12:06:30.243Z,103277.25
2023-02-14T12:09:21.688Z,103273.91
2023-02-14T12:12:02.590Z,103269.66
2023-02-14T12:14:34.503Z,103267.97
2023-02-14T12:17:27.451Z,103261.16
2023-02-14T12:20:03.512Z,103265.53
2023-02-14T12:22:35.930Z,103258.69
2023-02-14T12:25:21.371Z,103260.56
2023-02-14T12:27:53.733Z,103250.16
2023-02-14T12:30:24.952Z,103254.59
2023-02-14T12:32:54.328Z,103245.97
2023-02-14T12:35:46.247Z,103241.69
2023-02-14T12:38:36.529Z,103247.06
2023-02-14T12:41:12.198Z,103249.75
2023-02-14T12:43:52.440Z,103240.22
2023-02-14T12:46:30.307Z,103236.75
2023-02-14T12:49:03.204Z,103236.03
2023-02-14T12:51:50.865Z,103228.31
2023-02-14T12:55:16.014Z,103226.69
2023-02-14T12:58:02.323Z,103223.31
2023-02-14T13:01:01.403Z,103212.91
2023-02-14T13:03:31.243Z,103206.84
2023-02-14T13:06:30.630Z,103203.44
2023-02-14T13:09:06.109Z,103207.81
2023-02-14T13:11:46.708Z,103200.00
2023-02-14T13:14:45.681Z,103193.09
2023-02-14T13:17:41.073Z,103186.16
2023-02-14T13:20:45.388Z,103186.25
2023-02-14T13:23:29.930Z,103177.53
2023-02-14T13:26:01.381Z,103177.56
2023-02-14T13:28:30.786Z,103175.00
2023-02-14T13:30:59.900Z,103172.47
2023-02-14T13:33:40.183Z,103162.91
2023-02-14T13:36:12.599Z,103157.72
2023-02-14T13:38:52.217Z,103162.13
2023-02-14T13:41:21.428Z,103156.91
2023-02-14T13:44:08.250Z,103163.06
2023-02-14T13:46:35.146Z,103158.72
2023-02-14T13:49:22.023Z,103157.00
2023-02-14T13:51:51.040Z,103155.34
2023-02-14T13:54:44.944Z,103152.75
2023-02-14T13:57:29.409Z,103152.78
2023-02-14T14:00:17.956Z,103150.22
2023-02-14T14:02:48.876Z,103150.25
2023-02-14T14:05:30.585Z,103143.34
2023-02-14T14:08:27.561Z,103139.00
2023-02-14T14:10:57.603Z,103142.47
2023-02-14T14:13:42.655Z,103132.03
2023-02-14T14:16:27.458Z,103135.53
2023-02-14T14:18:58.588Z,103137.31
2023-02-14T14:21:29.747Z,103134.69
2023-02-14T14:24:20.807Z,103133.75
2023-02-14T14:26:56.424Z,103132.03
2023-02-14T14:29:31.015Z,103127.63
2023-02-14T14:31:58.519Z,103128.47
2023-02-14T14:34:28.236Z,103131.91
2023-02-14T14:37:05.826Z,103122.28
2023-02-14T14:39:34.637Z,103131.84
2023-02-14T14:42:09.810Z,103120.53
2023-02-14T14:44:44.982Z,103123.13
2023-02-14T14:47:24.497Z,103116.13
2023-02-14T14:50:00.312Z,103118.75
2023-02-14T14:52:34.908Z,103111.75
2023-02-14T14:55:02.961Z,103105.66
2023-02-14T14:57:30.110Z,103103.84
2023-02-14T15:00:18.931Z,103101.19
2023-02-14T15:03:07.085Z,103100.25
2023-02-14T15:05:40.472Z,103098.41
2023-02-14T15:08:17.566Z,103102.72
2023-02-14T15:10:49.591Z,103102.69
2023-02-14T15:13:35.046Z,103096.53
2023-02-14T15:16:03.819Z,103090.41
2023-02-14T15:18:30.679Z,103096.44
2023-02-14T15:20:57.424Z,103092.84
2023-02-14T15:23:25.118Z,103084.06
2023-02-14T15:25:52.344Z,103075.25
2023-02-14T15:28:31.731Z,103076.97
2023-02-14T15:31:03.808Z,103076.88
2023-02-14T15:33:32.214Z,103075.03
2023-02-14T15:36:04.223Z,103070.59
2023-02-14T15:38:32.112Z,103066.13
2023-02-14T15:41:00.248Z,103065.97
2023-02-14T15:43:32.601Z,103065.00
2023-02-14T15:46:15.116Z,103064.00
2023-02-14T15:48:42.337Z,103052.50
2023-02-14T15:51:16.801Z,103057.59
2023-02-14T15:53:53.649Z,103047.88
2023-02-14T15:56:25.265Z,103052.06
2023-02-14T15:59:00.317Z,103060.56
2023-02-14T16:01:27.665Z,103058.66
2023-02-14T16:03:59.619Z,103056.78
2023-02-14T16:06:37.383Z,103053.94
2023-02-14T16:09:26.061Z,103057.22
2023-02-14T16:11:53.648Z,103057.88
2023-02-14T16:14:29.390Z,103053.38
2023-02-14T16:17:06.084Z,103059.25
2023-02-14T16:19:35.445Z,103054.69
2023-02-14T16:22:02.157Z,103054.47
2023-02-14T16:24:28.801Z,103059.41
2023-02-14T16:26:56.393Z,103055.63
2023-02-14T16:29:22.912Z,103050.25
2023-02-14T16:32:14.557Z,103056.06
2023-02-14T16:34:41.737Z,103042.75
2023-02-14T16:37:12.110Z,103050.28
2023-02-14T16:39:39.318Z,103050.91
2023-02-14T16:42:06.257Z,103054.13
2023-02-14T16:44:33.112Z,103050.44
2023-02-14T16:47:01.949Z,103056.28
2023-02-14T16:49:28.500Z,103047.34
2023-02-14T16:51:55.371Z,103049.69
2023-02-14T16:54:23.734Z,103041.56
2023-02-14T16:56:53.400Z,103041.28
2023-02-14T16:59:19.951Z,103042.88
2023-02-14T17:01:46.593Z,103038.28
2023-02-14T17:04:13.411Z,103044.09
2023-02-14T17:06:43.511Z,103046.53
2023-02-14T17:09:13.651Z,103046.34
2023-02-14T17:11:45.206Z,103050.44
2023-02-14T17:14:17.838Z,103047.59
2023-02-14T17:16:44.410Z,103048.25
2023-02-14T17:19:11.788Z,103047.22
2023-02-14T17:21:38.689Z,103049.63
2023-02-14T17:24:05.481Z,103047.59
2023-02-14T17:26:33.757Z,103050.03
2023-02-14T17:29:00.413Z,103046.34
2023-02-14T17:31:28.574Z,103049.66
2023-02-14T17:33:55.490Z,103057.25
2023-02-14T17:36:24.148Z,103054.38
2023-02-14T17:38:53.489Z,103055.94
2023-02-14T17:41:25.698Z,103058.34
2023-02-14T17:44:00.132Z,103053.81
2023-02-14T17:46:31.027Z,103057.88
2023-02-14T17:48:57.900Z,103049.97
2023-02-14T17:51:24.958Z,103048.88
2023-02-14T17:53:51.848Z,103054.78
2023-02-14T17:56:24.532Z,103057.09
2023-02-14T17:58:57.751Z,103051.66
2023-02-14T18:01:26.682Z,103045.44
2023-02-14T18:03:55.971Z,103042.66
2023-02-14T18:06:23.091Z,103042.53
2023-02-14T18:08:52.997Z,103039.75
2023-02-14T18:11:20.887Z,103031.78
2023-02-14T18:13:47.678Z,103031.56
2023-02-14T18:16:16.462Z,103027.03
2023-02-14T18:18:43.364Z,103027.81
2023-02-14T18:21:12.326Z,103021.59
2023-02-14T18:23:39.311Z,103026.59
2023-02-14T18:26:09.932Z,103021.25
2023-02-14T18:28:36.638Z,103023.72
2023-02-14T18:31:12.045Z,103020.03
2023-02-14T18:33:39.756Z,103014.63
2023-02-14T18:36:10.079Z,103013.59
2023-02-14T18:38:36.841Z,103010.00
2023-02-14T18:41:04.511Z,103017.59
2023-02-14T18:43:31.287Z,103018.28
2023-02-14T18:46:10.242Z,103013.78
2023-02-14T18:48:36.903Z,103017.88
2023-02-14T18:51:23.528Z,103013.38
2023-02-14T18:53:52.239Z,103001.09
2023-02-14T18:56:22.176Z,103004.38
2023-02-14T18:58:52.720Z,102996.47
2023-02-14T19:01:23.291Z,102998.09
2023-02-14T19:03:51.262Z,102997.97
2023-02-14T19:06:18.239Z,102988.28
2023-02-14T19:08:45.303Z,102991.56
2023-02-14T19:11:18.414Z,102986.19
2023-02-14T19:13:51.218Z,102986.84
2023-02-14T19:16:24.375Z,102978.97
2023-02-14T19:18:53.356Z,102990.06
2023-02-14T19:21:25.687Z,102987.34
2023-02-14T19:23:54.361Z,102994.16
2023-02-14T19:26:23.704Z,102995.66
2023-02-14T19:28:54.877Z,102997.16
2023-02-14T19:31:21.861Z,102998.72
2023-02-14T19:33:48.948Z,103002.94
2023-02-14T19:36:18.521Z,103004.50
2023-02-14T19:38:48.207Z,103000.06
2023-02-14T19:41:18.793Z,102993.88
2023-02-14T19:43:46.452Z,103003.19
2023-02-14T19:46:14.547Z,102991.81
2023-02-14T19:48:41.513Z,102990.78
2023-02-14T19:51:08.387Z,102992.25
2023-02-14T19:53:34.969Z,103001.59
2023-02-14T19:56:01.845Z,102989.31
2023-02-14T19:58:28.646Z,102986.53
2023-02-14T20:01:00.014Z,102985.50
2023-02-14T20:03:30.607Z,102985.34
2023-02-14T20:05:57.224Z,102977.34
2023-02-14T20:08:23.963Z,102977.94
2023-02-14T20:10:50.528Z,102983.78
2023-02-14T20:13:17.056Z,102979.22
2023-02-14T20:15:45.504Z,102973.09
2023-02-14T20:18:12.013Z,102992.81
2023-02-14T20:20:57.194Z,102983.13
2023-02-14T20:23:23.802Z,102977.81
2023-02-14T20:25:50.342Z,102974.22
2023-02-14T20:28:16.888Z,102968.84
2023-02-14T20:30:43.525Z,102969.63
2023-02-14T20:33:10.138Z,102960.81
2023-02-14T20:35:40.687Z,102964.94
2023-02-14T20:38:07.870Z,102962.22
2023-02-14T20:40:39.190Z,102957.69
2023-02-14T20:43:06.272Z,102951.34
2023-02-14T20:45:32.987Z,102951.19
2023-02-14T20:48:03.984Z,102950.00
2023-02-14T20:50:31.246Z,102957.59
2023-02-14T20:52:58.185Z,102958.34
2023-02-14T20:55:27.036Z,102948.75
2023-02-14T20:57:53.924Z,102946.91
2023-02-14T21:00:20.691Z,102945.91
2023-02-14T21:02:47.230Z,102942.38
2023-02-14T21:05:18.500Z,102937.03
2023-02-14T21:07:45.210Z,102936.88
2023-02-14T21:10:11.725Z,102941.09
2023-02-14T21:12:38.672Z,102940.97
2023-02-14T21:15:06.979Z,102934.75
2023-02-14T21:17:33.984Z,102932.00
2023-02-14T21:20:00.569Z,102934.50
2023-02-14T21:22:27.214Z,102936.25
2023-02-14T21:24:53.759Z,102929.28
2023-02-14T21:27:20.285Z,102930.00
2023-02-14T21:29:46.857Z,102924.56
2023-02-14T21:32:13.503Z,102925.34
2023-02-14T21:34:40.233Z,102923.41
2023-02-14T21:37:06.740Z,102922.34
2023-02-14T21:39:35.711Z,102922.28
2023-02-14T21:42:02.404Z,102920.50
2023-02-14T21:44:47.327Z,102924.63
2023-02-14T21:47:13.924Z,102921.06
2023-02-14T21:49:59.164Z,102916.63
2023-02-14T21:52:25.713Z,102907.78
2023-02-14T21:54:52.458Z,102917.03
2023-02-14T21:57:19.013Z,102915.91
2023-02-14T21:59:45.550Z,102914.94
2023-02-14T22:02:12.444Z,102913.25
2023-02-14T22:04:39.303Z,102907.94
2023-02-14T22:07:07.871Z,102916.31
2023-02-14T22:09:34.543Z,102913.59
2023-02-14T22:12:01.104Z,102917.84
2023-02-14T22:14:29.282Z,102912.59
2023-02-14T22:16:55.991Z,102903.91
2023-02-14T22:19:24.932Z,102905.50
2023-02-14T22:21:51.422Z,102904.47
2023-02-14T22:24:18.015Z,102900.09
2023-02-14T22:26:44.598Z,102904.38
2023-02-14T22:29:12.489Z,102899.94
2023-02-14T22:31:43.629Z,102896.38
2023-02-14T22:34:15.987Z,102898.00
2023-02-14T22:36:42.568Z,102892.84
2023-02-14T22:39:12.636Z,102887.59
2023-02-14T22:41:39.575Z,102889.28
2023-02-14T22:44:06.318Z,102896.06
2023-02-14T22:46:33.352Z,102887.19
2023-02-14T22:48:59.916Z,102889.53
2023-02-14T22:51:29.994Z,102890.25
2023-02-14T22:53:59.397Z,102886.59
2023-02-14T22:56:27.496Z,102892.50
2023-02-14T22:58:55.875Z,102888.88
2023-02-14T23:01:23.635Z,102882.56
2023-02-14T23:03:57.131Z,102884.91
2023-02-14T23:06:25.910Z,102877.81
2023-02-14T23:08:53.511Z,102875.06
2023-02-14T23:11:23.072Z,102873.19
2023-02-14T23:14:08.235Z,102869.66
2023-02-14T23:17:04.025Z,102869.56
2023-02-14T23:19:51.376Z,102867.81
2023-02-14T23:22:27.242Z,102860.88
2023-02-14T23:24:57.252Z,102858.22
2023-02-14T23:27:27.306Z,102860.69
2023-02-14T23:29:53.816Z,102861.50
2023-02-14T23:32:20.445Z,102857.97
2023-02-14T23:34:47.218Z,102857.97
2023-02-14T23:37:14.291Z,102856.19
2023-02-14T23:39:40.999Z,102860.53
2023-02-14T23:42:13.698Z,102854.56
2023-02-14T23:44:40.667Z,102852.06
2023-02-14T23:47:08.632Z,102849.47
2023-02-14T23:49:37.321Z,102846.03
2023-02-14T23:52:06.462Z,102844.41
2023-02-14T23:54:33.534Z,102841.81
2023-02-14T23:56:59.984Z,102832.56
2023-02-14T23:59:26.629Z,102837.72
